sensor_id;sensor_type;location;lat;lon;timestamp;temperature;humidity
14473;DHT22;7322;50.872;4.386;2024-01-30T00:00:30;17.50;99.90
14473;DHT22;7322;50.872;4.386;2024-01-30T00:02:58;17.60;99.90
14473;DHT22;7322;50.872;4.386;2024-01-30T00:05:25;17.60;99.90
14473;DHT22;7322;50.872;4.386;2024-01-30T00:07:53;17.50;99.90
14473;DHT22;7322;50.872;4.386;2024-01-30T00:10:23;17.50;99.90
14473;DHT22;7322;50.872;4.386;2024-01-30T00:12:50;17.50;99.90
14473;DHT22;7322;50.872;4.386;2024-01-30T00:15:19;17.50;99.90
14473;DHT22;7322;50.872;4.386;2024-01-30T00:17:47;17.60;99.90
14473;DHT22;7322;50.872;4.386;2024-01-30T00:20:14;17.50;99.90
14473;DHT22;7322;50.872;4.386;2024-01-30T00:22:41;17.60;99.90
14473;DHT22;7322;50.872;4.386;2024-01-30T00:25:08;17.60;99.90
14473;DHT22;7322;50.872;4.386;2024-01-30T00:27:35;17.50;99.90
14473;DHT22;7322;50.872;4.386;2024-01-30T00:30:03;17.60;99.90
14473;DHT22;7322;50.872;4.386;2024-01-30T00:32:32;17.50;99.90
14473;DHT22;7322;50.872;4.386;2024-01-30T00:34:59;17.50;99.90
14473;DHT22;7322;50.872;4.386;2024-01-30T00:37:26;17.50;99.90
14473;DHT22;7322;50.872;4.386;2024-01-30T00:39:53;17.60;99.90
14473;DHT22;7322;50.872;4.386;2024-01-30T00:42:21;17.50;99.90
14473;DHT22;7322;50.872;4.386;2024-01-30T00:44:50;17.50;99.90
14473;DHT22;7322;50.872;4.386;2024-01-30T00:47:17;17.50;99.90
14473;DHT22;7322;50.872;4.386;2024-01-30T00:49:46;17.50;99.90
14473;DHT22;7322;50.872;4.386;2024-01-30T00:52:13;17.50;99.90
14473;DHT22;7322;50.872;4.386;2024-01-30T00:54:41;17.50;99.90
14473;DHT22;7322;50.872;4.386;2024-01-30T00:57:10;17.50;99.90
14473;DHT22;7322;50.872;4.386;2024-01-30T00:59:37;17.50;99.90
14473;DHT22;7322;50.872;4.386;2024-01-30T01:02:04;17.50;99.90
14473;DHT22;7322;50.872;4.386;2024-01-30T01:04:39;17.50;99.90
14473;DHT22;7322;50.872;4.386;2024-01-30T01:07:46;17.50;99.90
14473;DHT22;7322;50.872;4.386;2024-01-30T01:10:27;17.60;99.90
14473;DHT22;7322;50.872;4.386;2024-01-30T01:12:54;17.50;99.90
14473;DHT22;7322;50.872;4.386;2024-01-30T01:15:23;17.50;99.90
14473;DHT22;7322;50.872;4.386;2024-01-30T01:18:21;17.50;99.90
14473;DHT22;7322;50.872;4.386;2024-01-30T01:21:20;17.50;99.90
14473;DHT22;7322;50.872;4.386;2024-01-30T01:24:31;17.50;99.90
14473;DHT22;7322;50.872;4.386;2024-01-30T01:27:05;17.60;99.90
14473;DHT22;7322;50.872;4.386;2024-01-30T01:29:32;17.60;99.90
14473;DHT22;7322;50.872;4.386;2024-01-30T01:32:15;17.50;99.90
14473;DHT22;7322;50.872;4.386;2024-01-30T01:35:06;17.50;99.90
14473;DHT22;7322;50.872;4.386;2024-01-30T01:37:38;17.50;99.90
14473;DHT22;7322;50.872;4.386;2024-01-30T01:40:27;17.50;99.90
14473;DHT22;7322;50.872;4.386;2024-01-30T01:43:16;17.50;99.90
14473;DHT22;7322;50.872;4.386;2024-01-30T01:46:34;17.50;99.90
14473;DHT22;7322;50.872;4.386;2024-01-30T01:49:23;17.50;99.90
14473;DHT22;7322;50.872;4.386;2024-01-30T01:51:52;17.50;99.90
14473;DHT22;7322;50.872;4.386;2024-01-30T01:54:21;17.50;99.90
14473;DHT22;7322;50.872;4.386;2024-01-30T01:56:50;17.50;99.90
14473;DHT22;7322;50.872;4.386;2024-01-30T01:59:18;17.50;99.90
14473;DHT22;7322;50.872;4.386;2024-01-30T02:01:46;17.50;99.90
14473;DHT22;7322;50.872;4.386;2024-01-30T02:04:14;17.50;99.90
14473;DHT22;7322;50.872;4.386;2024-01-30T02:06:43;17.50;99.90
14473;DHT22;7322;50.872;4.386;2024-01-30T02:09:10;17.50;99.90
14473;DHT22;7322;50.872;4.386;2024-01-30T02:11:37;17.50;99.90
14473;DHT22;7322;50.872;4.386;2024-01-30T02:14:07;17.50;99.90
14473;DHT22;7322;50.872;4.386;2024-01-30T02:16:34;17.50;99.90
14473;DHT22;7322;50.872;4.386;2024-01-30T02:19:02;17.50;99.90
14473;DHT22;7322;50.872;4.386;2024-01-30T02:21:31;17.60;99.90
14473;DHT22;7322;50.872;4.386;2024-01-30T02:24:00;17.50;99.90
14473;DHT22;7322;50.872;4.386;2024-01-30T02:26:28;17.50;99.90
14473;DHT22;7322;50.872;4.386;2024-01-30T02:28:55;17.50;99.90
14473;DHT22;7322;50.872;4.386;2024-01-30T02:31:22;17.50;99.90
14473;DHT22;7322;50.872;4.386;2024-01-30T02:33:49;17.50;99.90
14473;DHT22;7322;50.872;4.386;2024-01-30T02:36:16;17.50;99.90
14473;DHT22;7322;50.872;4.386;2024-01-30T02:38:45;17.50;99.90
14473;DHT22;7322;50.872;4.386;2024-01-30T02:41:12;17.50;99.90
14473;DHT22;7322;50.872;4.386;2024-01-30T02:43:40;17.50;99.90
14473;DHT22;7322;50.872;4.386;2024-01-30T02:46:07;17.50;99.90
14473;DHT22;7322;50.872;4.386;2024-01-30T02:48:34;17.50;99.90
14473;DHT22;7322;50.872;4.386;2024-01-30T02:51:01;17.40;99.90
14473;DHT22;7322;50.872;4.386;2024-01-30T02:53:28;17.50;99.90
14473;DHT22;7322;50.872;4.386;2024-01-30T02:55:57;17.50;99.90
14473;DHT22;7322;50.872;4.386;2024-01-30T02:58:24;17.50;99.90
14473;DHT22;7322;50.872;4.386;2024-01-30T03:00:51;17.50;99.90
14473;DHT22;7322;50.872;4.386;2024-01-30T03:03:18;17.50;99.90
14473;DHT22;7322;50.872;4.386;2024-01-30T03:05:45;17.50;99.90
14473;DHT22;7322;50.872;4.386;2024-01-30T03:08:15;17.50;99.90
14473;DHT22;7322;50.872;4.386;2024-01-30T03:10:45;17.50;99.90
14473;DHT22;7322;50.872;4.386;2024-01-30T03:13:19;17.50;99.90
14473;DHT22;7322;50.872;4.386;2024-01-30T03:15:48;17.50;99.90
14473;DHT22;7322;50.872;4.386;2024-01-30T03:18:16;17.50;99.90
14473;DHT22;7322;50.872;4.386;2024-01-30T03:20:47;17.40;99.90
14473;DHT22;7322;50.872;4.386;2024-01-30T03:23:14;17.40;99.90
14473;DHT22;7322;50.872;4.386;2024-01-30T03:25:41;17.40;99.90
14473;DHT22;7322;50.872;4.386;2024-01-30T03:28:14;17.50;99.90
14473;DHT22;7322;50.872;4.386;2024-01-30T03:30:42;17.50;99.90
14473;DHT22;7322;50.872;4.386;2024-01-30T03:33:23;17.40;99.90
14473;DHT22;7322;50.872;4.386;2024-01-30T03:35:50;17.40;99.90
14473;DHT22;7322;50.872;4.386;2024-01-30T03:38:17;17.40;99.90
14473;DHT22;7322;50.872;4.386;2024-01-30T03:40:49;17.40;99.90
14473;DHT22;7322;50.872;4.386;2024-01-30T03:43:19;17.50;99.90
14473;DHT22;7322;50.872;4.386;2024-01-30T03:45:48;17.40;99.90
14473;DHT22;7322;50.872;4.386;2024-01-30T03:48:15;17.40;99.90
14473;DHT22;7322;50.872;4.386;2024-01-30T03:50:42;17.40;99.90
14473;DHT22;7322;50.872;4.386;2024-01-30T03:53:12;17.40;99.90
14473;DHT22;7322;50.872;4.386;2024-01-30T03:55:41;17.40;99.90
14473;DHT22;7322;50.872;4.386;2024-01-30T03:58:08;17.50;99.90
14473;DHT22;7322;50.872;4.386;2024-01-30T04:00:37;17.50;99.90
14473;DHT22;7322;50.872;4.386;2024-01-30T04:03:04;17.40;99.90
14473;DHT22;7322;50.872;4.386;2024-01-30T04:05:32;17.40;99.90
14473;DHT22;7322;50.872;4.386;2024-01-30T04:08:01;17.40;99.90
14473;DHT22;7322;50.872;4.386;2024-01-30T04:10:28;17.40;99.90
14473;DHT22;7322;50.872;4.386;2024-01-30T04:12:56;17.40;99.90
14473;DHT22;7322;50.872;4.386;2024-01-30T04:15:23;17.50;99.90
14473;DHT22;7322;50.872;4.386;2024-01-30T04:17:56;17.40;99.90
14473;DHT22;7322;50.872;4.386;2024-01-30T04:20:24;17.40;99.90
14473;DHT22;7322;50.872;4.386;2024-01-30T04:22:51;17.40;99.90
14473;DHT22;7322;50.872;4.386;2024-01-30T04:25:24;17.40;99.90
14473;DHT22;7322;50.872;4.386;2024-01-30T04:27:54;17.40;99.90
14473;DHT22;7322;50.872;4.386;2024-01-30T04:30:25;17.40;99.90
14473;DHT22;7322;50.872;4.386;2024-01-30T04:32:58;17.30;99.90
14473;DHT22;7322;50.872;4.386;2024-01-30T04:35:25;17.40;99.90
14473;DHT22;7322;50.872;4.386;2024-01-30T04:37:56;17.40;99.90
14473;DHT22;7322;50.872;4.386;2024-01-30T04:40:25;17.40;99.90
14473;DHT22;7322;50.872;4.386;2024-01-30T04:42:52;17.30;99.90
14473;DHT22;7322;50.872;4.386;2024-01-30T04:45:19;17.30;99.90
14473;DHT22;7322;50.872;4.386;2024-01-30T04:47:46;17.40;99.90
14473;DHT22;7322;50.872;4.386;2024-01-30T04:50:15;17.40;99.90
14473;DHT22;7322;50.872;4.386;2024-01-30T04:52:43;17.40;99.90
14473;DHT22;7322;50.872;4.386;2024-01-30T04:55:10;17.40;99.90
14473;DHT22;7322;50.872;4.386;2024-01-30T04:57:38;17.40;99.90
14473;DHT22;7322;50.872;4.386;2024-01-30T05:00:06;17.40;99.90
14473;DHT22;7322;50.872;4.386;2024-01-30T05:02:33;17.40;99.90
14473;DHT22;7322;50.872;4.386;2024-01-30T05:05:00;17.40;99.90
14473;DHT22;7322;50.872;4.386;2024-01-30T05:07:29;17.40;99.90
14473;DHT22;7322;50.872;4.386;2024-01-30T05:09:58;17.40;99.90
14473;DHT22;7322;50.872;4.386;2024-01-30T05:12:26;17.30;99.90
14473;DHT22;7322;50.872;4.386;2024-01-30T05:14:53;17.30;99.90
14473;DHT22;7322;50.872;4.386;2024-01-30T05:17:21;17.30;99.90
14473;DHT22;7322;50.872;4.386;2024-01-30T05:19:49;17.30;99.90
14473;DHT22;7322;50.872;4.386;2024-01-30T05:22:16;17.30;99.90
14473;DHT22;7322;50.872;4.386;2024-01-30T05:24:45;17.30;99.90
14473;DHT22;7322;50.872;4.386;2024-01-30T05:27:12;17.30;99.90
14473;DHT22;7322;50.872;4.386;2024-01-30T05:29:40;17.30;99.90
14473;DHT22;7322;50.872;4.386;2024-01-30T05:32:07;17.30;99.90
14473;DHT22;7322;50.872;4.386;2024-01-30T05:34:35;17.30;99.90
14473;DHT22;7322;50.872;4.386;2024-01-30T05:37:02;17.30;99.90
14473;DHT22;7322;50.872;4.386;2024-01-30T05:39:29;17.20;99.90
14473;DHT22;7322;50.872;4.386;2024-01-30T05:42:00;17.20;99.90
14473;DHT22;7322;50.872;4.386;2024-01-30T05:44:28;17.30;99.90
14473;DHT22;7322;50.872;4.386;2024-01-30T05:46:54;17.30;99.90
14473;DHT22;7322;50.872;4.386;2024-01-30T05:49:21;17.30;99.90
14473;DHT22;7322;50.872;4.386;2024-01-30T05:51:48;17.30;99.90
14473;DHT22;7322;50.872;4.386;2024-01-30T05:54:16;17.20;99.90
14473;DHT22;7322;50.872;4.386;2024-01-30T05:56:43;17.30;99.90
14473;DHT22;7322;50.872;4.386;2024-01-30T05:59:11;17.30;99.90
14473;DHT22;7322;50.872;4.386;2024-01-30T06:01:45;17.30;99.90
14473;DHT22;7322;50.872;4.386;2024-01-30T06:04:17;17.30;99.90
14473;DHT22;7322;50.872;4.386;2024-01-30T06:06:44;17.30;99.90
14473;DHT22;7322;50.872;4.386;2024-01-30T06:09:11;17.40;99.90
14473;DHT22;7322;50.872;4.386;2024-01-30T06:11:38;17.30;99.90
14473;DHT22;7322;50.872;4.386;2024-01-30T06:14:05;17.30;99.90
14473;DHT22;7322;50.872;4.386;2024-01-30T06:16:34;17.30;99.90
14473;DHT22;7322;50.872;4.386;2024-01-30T06:19:02;17.30;99.90
14473;DHT22;7322;50.872;4.386;2024-01-30T06:21:29;17.30;99.90
14473;DHT22;7322;50.872;4.386;2024-01-30T06:24:08;17.30;99.90
14473;DHT22;7322;50.872;4.386;2024-01-30T06:26:37;17.20;99.90
14473;DHT22;7322;50.872;4.386;2024-01-30T06:29:08;17.20;99.90
14473;DHT22;7322;50.872;4.386;2024-01-30T06:31:41;17.20;99.90
14473;DHT22;7322;50.872;4.386;2024-01-30T06:34:09;17.50;99.90
14473;DHT22;7322;50.872;4.386;2024-01-30T06:36:37;17.50;99.90
14473;DHT22;7322;50.872;4.386;2024-01-30T06:39:04;17.70;99.90
14473;DHT22;7322;50.872;4.386;2024-01-30T06:41:33;17.80;99.90
14473;DHT22;7322;50.872;4.386;2024-01-30T06:44:02;17.90;99.90
14473;DHT22;7322;50.872;4.386;2024-01-30T06:46:29;18.10;99.90
14473;DHT22;7322;50.872;4.386;2024-01-30T06:48:58;18.30;99.90
14473;DHT22;7322;50.872;4.386;2024-01-30T06:51:25;18.40;99.90
14473;DHT22;7322;50.872;4.386;2024-01-30T06:53:52;18.50;99.90
14473;DHT22;7322;50.872;4.386;2024-01-30T06:56:53;18.60;99.90
14473;DHT22;7322;50.872;4.386;2024-01-30T06:59:33;18.80;99.90
14473;DHT22;7322;50.872;4.386;2024-01-30T07:02:11;18.80;99.90
14473;DHT22;7322;50.872;4.386;2024-01-30T07:04:41;18.90;99.90
14473;DHT22;7322;50.872;4.386;2024-01-30T07:07:10;19.00;99.90
14473;DHT22;7322;50.872;4.386;2024-01-30T07:09:56;19.00;99.90
14473;DHT22;7322;50.872;4.386;2024-01-30T07:12:24;19.00;99.90
14473;DHT22;7322;50.872;4.386;2024-01-30T07:14:51;19.00;99.90
14473;DHT22;7322;50.872;4.386;2024-01-30T07:17:19;19.10;99.90
14473;DHT22;7322;50.872;4.386;2024-01-30T07:20:00;19.10;99.90
14473;DHT22;7322;50.872;4.386;2024-01-30T07:22:29;19.10;99.90
14473;DHT22;7322;50.872;4.386;2024-01-30T07:24:56;19.10;99.90
14473;DHT22;7322;50.872;4.386;2024-01-30T07:27:23;19.10;99.90
14473;DHT22;7322;50.872;4.386;2024-01-30T07:29:51;19.10;99.90
14473;DHT22;7322;50.872;4.386;2024-01-30T07:32:18;19.10;99.90
14473;DHT22;7322;50.872;4.386;2024-01-30T07:34:45;19.10;99.90
14473;DHT22;7322;50.872;4.386;2024-01-30T07:37:14;19.00;99.90
14473;DHT22;7322;50.872;4.386;2024-01-30T07:39:41;19.00;99.90
14473;DHT22;7322;50.872;4.386;2024-01-30T07:45:26;19.00;99.90
14473;DHT22;7322;50.872;4.386;2024-01-30T07:48:15;18.90;99.90
14473;DHT22;7322;50.872;4.386;2024-01-30T07:50:42;18.80;99.90
14473;DHT22;7322;50.872;4.386;2024-01-30T07:53:10;18.90;99.90
14473;DHT22;7322;50.872;4.386;2024-01-30T07:55:40;18.80;99.90
14473;DHT22;7322;50.872;4.386;2024-01-30T07:58:09;18.80;99.90
14473;DHT22;7322;50.872;4.386;2024-01-30T08:00:36;18.70;99.90
14473;DHT22;7322;50.872;4.386;2024-01-30T08:03:04;18.70;99.90
14473;DHT22;7322;50.872;4.386;2024-01-30T08:05:31;18.60;99.90
14473;DHT22;7322;50.872;4.386;2024-01-30T08:07:58;18.60;99.90
14473;DHT22;7322;50.872;4.386;2024-01-30T08:10:27;18.60;99.90
14473;DHT22;7322;50.872;4.386;2024-01-30T08:12:54;18.60;99.90
14473;DHT22;7322;50.872;4.386;2024-01-30T08:15:23;18.60;99.90
14473;DHT22;7322;50.872;4.386;2024-01-30T08:17:50;18.50;99.90
14473;DHT22;7322;50.872;4.386;2024-01-30T08:20:21;18.60;99.90
14473;DHT22;7322;50.872;4.386;2024-01-30T08:22:48;18.50;99.90
14473;DHT22;7322;50.872;4.386;2024-01-30T08:25:15;18.50;99.90
14473;DHT22;7322;50.872;4.386;2024-01-30T08:27:44;18.50;99.90
14473;DHT22;7322;50.872;4.386;2024-01-30T08:30:12;18.50;99.90
14473;DHT22;7322;50.872;4.386;2024-01-30T08:32:39;18.40;99.90
14473;DHT22;7322;50.872;4.386;2024-01-30T08:35:06;18.40;99.90
14473;DHT22;7322;50.872;4.386;2024-01-30T08:37:34;18.40;99.90
14473;DHT22;7322;50.872;4.386;2024-01-30T08:40:01;18.50;99.90
14473;DHT22;7322;50.872;4.386;2024-01-30T08:42:30;18.50;99.90
14473;DHT22;7322;50.872;4.386;2024-01-30T08:44:58;18.50;99.90
14473;DHT22;7322;50.872;4.386;2024-01-30T08:47:25;18.40;99.90
14473;DHT22;7322;50.872;4.386;2024-01-30T08:49:53;18.40;99.90
14473;DHT22;7322;50.872;4.386;2024-01-30T08:52:23;18.40;99.90
14473;DHT22;7322;50.872;4.386;2024-01-30T08:54:50;18.40;99.90
14473;DHT22;7322;50.872;4.386;2024-01-30T08:57:17;18.40;99.90
14473;DHT22;7322;50.872;4.386;2024-01-30T08:59:44;18.40;99.90
14473;DHT22;7322;50.872;4.386;2024-01-30T09:02:13;18.30;99.90
14473;DHT22;7322;50.872;4.386;2024-01-30T09:04:41;18.40;99.90
14473;DHT22;7322;50.872;4.386;2024-01-30T09:07:09;18.40;99.90
14473;DHT22;7322;50.872;4.386;2024-01-30T09:09:37;18.30;99.90
14473;DHT22;7322;50.872;4.386;2024-01-30T09:12:07;18.30;99.90
14473;DHT22;7322;50.872;4.386;2024-01-30T09:14:35;18.30;99.90
14473;DHT22;7322;50.872;4.386;2024-01-30T09:17:02;18.30;99.90
14473;DHT22;7322;50.872;4.386;2024-01-30T09:19:31;18.30;99.90
14473;DHT22;7322;50.872;4.386;2024-01-30T09:21:58;18.30;99.90
14473;DHT22;7322;50.872;4.386;2024-01-30T09:24:26;18.20;99.90
14473;DHT22;7322;50.872;4.386;2024-01-30T09:26:53;18.20;99.90
14473;DHT22;7322;50.872;4.386;2024-01-30T09:29:21;18.20;99.90
14473;DHT22;7322;50.872;4.386;2024-01-30T09:31:48;18.20;99.90
14473;DHT22;7322;50.872;4.386;2024-01-30T09:34:15;18.10;99.90
14473;DHT22;7322;50.872;4.386;2024-01-30T09:36:43;18.20;99.90
14473;DHT22;7322;50.872;4.386;2024-01-30T09:39:10;18.20;99.90
14473;DHT22;7322;50.872;4.386;2024-01-30T09:41:59;18.20;99.90
14473;DHT22;7322;50.872;4.386;2024-01-30T09:44:29;18.10;99.90
14473;DHT22;7322;50.872;4.386;2024-01-30T09:46:56;18.10;99.90
14473;DHT22;7322;50.872;4.386;2024-01-30T09:49:33;18.10;99.90
14473;DHT22;7322;50.872;4.386;2024-01-30T09:52:02;18.10;99.90
14473;DHT22;7322;50.872;4.386;2024-01-30T09:54:30;18.10;99.90
14473;DHT22;7322;50.872;4.386;2024-01-30T09:56:57;18.10;99.90
14473;DHT22;7322;50.872;4.386;2024-01-30T09:59:25;18.10;99.90
14473;DHT22;7322;50.872;4.386;2024-01-30T10:01:52;18.10;99.90
14473;DHT22;7322;50.872;4.386;2024-01-30T10:04:19;18.10;99.90
14473;DHT22;7322;50.872;4.386;2024-01-30T10:06:47;18.10;99.90
14473;DHT22;7322;50.872;4.386;2024-01-30T10:09:15;18.10;99.90
14473;DHT22;7322;50.872;4.386;2024-01-30T10:11:49;18.00;99.90
14473;DHT22;7322;50.872;4.386;2024-01-30T10:14:18;18.00;99.90
14473;DHT22;7322;50.872;4.386;2024-01-30T10:16:51;18.00;99.90
14473;DHT22;7322;50.872;4.386;2024-01-30T10:19:18;18.00;99.90
14473;DHT22;7322;50.872;4.386;2024-01-30T10:21:46;18.00;99.90
14473;DHT22;7322;50.872;4.386;2024-01-30T10:24:15;17.90;99.90
14473;DHT22;7322;50.872;4.386;2024-01-30T10:26:46;17.90;99.90
14473;DHT22;7322;50.872;4.386;2024-01-30T10:29:14;17.90;99.90
14473;DHT22;7322;50.872;4.386;2024-01-30T10:31:41;17.90;99.90
14473;DHT22;7322;50.872;4.386;2024-01-30T10:34:08;17.90;99.90
14473;DHT22;7322;50.872;4.386;2024-01-30T10:36:40;17.90;99.90
14473;DHT22;7322;50.872;4.386;2024-01-30T10:39:10;17.90;99.90
14473;DHT22;7322;50.872;4.386;2024-01-30T10:41:44;17.90;99.90
14473;DHT22;7322;50.872;4.386;2024-01-30T10:44:11;17.90;99.90
14473;DHT22;7322;50.872;4.386;2024-01-30T10:46:41;17.80;99.90
14473;DHT22;7322;50.872;4.386;2024-01-30T10:49:09;17.90;99.90
14473;DHT22;7322;50.872;4.386;2024-01-30T10:51:38;17.80;99.90
14473;DHT22;7322;50.872;4.386;2024-01-30T10:54:09;17.80;99.90
14473;DHT22;7322;50.872;4.386;2024-01-30T10:56:38;17.80;99.90
14473;DHT22;7322;50.872;4.386;2024-01-30T10:59:06;17.80;99.90
14473;DHT22;7322;50.872;4.386;2024-01-30T11:01:35;17.80;99.90
14473;DHT22;7322;50.872;4.386;2024-01-30T11:04:02;17.80;99.90
14473;DHT22;7322;50.872;4.386;2024-01-30T11:06:31;17.80;99.90
14473;DHT22;7322;50.872;4.386;2024-01-30T11:09:03;17.80;99.90
14473;DHT22;7322;50.872;4.386;2024-01-30T11:11:49;17.80;99.90
14473;DHT22;7322;50.872;4.386;2024-01-30T11:14:23;17.70;99.90
14473;DHT22;7322;50.872;4.386;2024-01-30T11:16:51;17.70;99.90
14473;DHT22;7322;50.872;4.386;2024-01-30T11:19:22;17.60;99.90
14473;DHT22;7322;50.872;4.386;2024-01-30T11:21:53;17.70;99.90
14473;DHT22;7322;50.872;4.386;2024-01-30T11:24:22;17.70;99.90
14473;DHT22;7322;50.872;4.386;2024-01-30T11:26:57;17.70;99.90
14473;DHT22;7322;50.872;4.386;2024-01-30T11:29:42;17.70;99.90
14473;DHT22;7322;50.872;4.386;2024-01-30T11:32:10;17.70;99.90
14473;DHT22;7322;50.872;4.386;2024-01-30T11:34:41;17.70;99.90
14473;DHT22;7322;50.872;4.386;2024-01-30T11:37:12;17.70;99.90
14473;DHT22;7322;50.872;4.386;2024-01-30T11:39:40;17.70;99.90
14473;DHT22;7322;50.872;4.386;2024-01-30T11:42:09;17.70;99.90
14473;DHT22;7322;50.872;4.386;2024-01-30T11:44:37;17.70;99.90
14473;DHT22;7322;50.872;4.386;2024-01-30T11:47:05;17.70;99.90
14473;DHT22;7322;50.872;4.386;2024-01-30T11:49:33;17.70;99.90
14473;DHT22;7322;50.872;4.386;2024-01-30T11:52:00;17.60;99.90
14473;DHT22;7322;50.872;4.386;2024-01-30T11:54:27;17.70;99.90
14473;DHT22;7322;50.872;4.386;2024-01-30T11:56:54;17.60;99.90
14473;DHT22;7322;50.872;4.386;2024-01-30T11:59:28;17.70;99.90
14473;DHT22;7322;50.872;4.386;2024-01-30T12:01:56;17.70;99.90
14473;DHT22;7322;50.872;4.386;2024-01-30T12:04:23;17.70;99.90
14473;DHT22;7322;50.872;4.386;2024-01-30T12:06:51;17.70;99.90
14473;DHT22;7322;50.872;4.386;2024-01-30T12:09:18;17.70;99.90
14473;DHT22;7322;50.872;4.386;2024-01-30T12:11:45;17.70;99.90
14473;DHT22;7322;50.872;4.386;2024-01-30T12:14:13;17.70;99.90
14473;DHT22;7322;50.872;4.386;2024-01-30T12:16:42;17.70;99.90
14473;DHT22;7322;50.872;4.386;2024-01-30T12:19:09;17.70;99.90
14473;DHT22;7322;50.872;4.386;2024-01-30T12:21:37;17.60;99.90
14473;DHT22;7322;50.872;4.386;2024-01-30T12:24:05;17.70;99.90
14473;DHT22;7322;50.872;4.386;2024-01-30T12:26:32;17.60;99.90
14473;DHT22;7322;50.872;4.386;2024-01-30T12:29:00;17.60;99.90
14473;DHT22;7322;50.872;4.386;2024-01-30T12:31:27;17.70;99.90
14473;DHT22;7322;50.872;4.386;2024-01-30T12:33:59;17.70;99.90
14473;DHT22;7322;50.872;4.386;2024-01-30T12:36:26;17.70;99.90
14473;DHT22;7322;50.872;4.386;2024-01-30T12:38:55;17.70;99.90
14473;DHT22;7322;50.872;4.386;2024-01-30T12:41:26;17.70;99.90
14473;DHT22;7322;50.872;4.386;2024-01-30T12:43:56;17.70;99.90
14473;DHT22;7322;50.872;4.386;2024-01-30T12:46:27;17.70;99.90
14473;DHT22;7322;50.872;4.386;2024-01-30T12:48:56;17.70;99.90
14473;DHT22;7322;50.872;4.386;2024-01-30T12:51:23;17.60;99.90
14473;DHT22;7322;50.872;4.386;2024-01-30T12:53:50;17.70;99.90
14473;DHT22;7322;50.872;4.386;2024-01-30T12:56:18;17.70;99.90
14473;DHT22;7322;50.872;4.386;2024-01-30T12:58:45;17.70;99.90
14473;DHT22;7322;50.872;4.386;2024-01-30T13:01:12;17.70;99.90
14473;DHT22;7322;50.872;4.386;2024-01-30T13:03:39;17.70;99.90
14473;DHT22;7322;50.872;4.386;2024-01-30T13:06:08;17.60;99.90
14473;DHT22;7322;50.872;4.386;2024-01-30T13:08:35;17.60;99.90
14473;DHT22;7322;50.872;4.386;2024-01-30T13:11:02;17.60;99.90
14473;DHT22;7322;50.872;4.386;2024-01-30T13:13:29;17.70;99.90
14473;DHT22;7322;50.872;4.386;2024-01-30T13:15:56;17.60;99.90
14473;DHT22;7322;50.872;4.386;2024-01-30T13:18:24;17.60;99.90
14473;DHT22;7322;50.872;4.386;2024-01-30T13:20:51;17.60;99.90
14473;DHT22;7322;50.872;4.386;2024-01-30T13:23:19;17.60;99.90
14473;DHT22;7322;50.872;4.386;2024-01-30T13:25:46;17.60;99.90
14473;DHT22;7322;50.872;4.386;2024-01-30T13:28:13;17.60;99.90
14473;DHT22;7322;50.872;4.386;2024-01-30T13:30:40;17.60;99.90
14473;DHT22;7322;50.872;4.386;2024-01-30T13:33:07;17.60;99.90
14473;DHT22;7322;50.872;4.386;2024-01-30T13:35:34;17.60;99.90
14473;DHT22;7322;50.872;4.386;2024-01-30T13:38:01;17.60;99.90
14473;DHT22;7322;50.872;4.386;2024-01-30T13:40:29;17.60;99.90
14473;DHT22;7322;50.872;4.386;2024-01-30T13:42:57;17.50;99.90
14473;DHT22;7322;50.872;4.386;2024-01-30T13:45:24;17.50;99.90
14473;DHT22;7322;50.872;4.386;2024-01-30T13:47:50;17.50;99.90
14473;DHT22;7322;50.872;4.386;2024-01-30T13:50:17;17.50;99.90
14473;DHT22;7322;50.872;4.386;2024-01-30T13:52:44;17.50;99.90
14473;DHT22;7322;50.872;4.386;2024-01-30T13:55:11;17.60;99.90
14473;DHT22;7322;50.872;4.386;2024-01-30T13:57:40;17.60;99.90
14473;DHT22;7322;50.872;4.386;2024-01-30T14:00:08;17.50;99.90
14473;DHT22;7322;50.872;4.386;2024-01-30T14:02:35;17.50;99.90
14473;DHT22;7322;50.872;4.386;2024-01-30T14:05:02;17.50;99.90
14473;DHT22;7322;50.872;4.386;2024-01-30T14:07:35;17.50;99.90
14473;DHT22;7322;50.872;4.386;2024-01-30T14:10:04;17.50;99.90
14473;DHT22;7322;50.872;4.386;2024-01-30T14:12:36;17.50;99.90
14473;DHT22;7322;50.872;4.386;2024-01-30T14:15:15;17.50;99.90
14473;DHT22;7322;50.872;4.386;2024-01-30T14:17:48;17.50;99.90
14473;DHT22;7322;50.872;4.386;2024-01-30T14:20:19;17.50;99.90
14473;DHT22;7322;50.872;4.386;2024-01-30T14:22:56;17.50;99.90
14473;DHT22;7322;50.872;4.386;2024-01-30T14:25:23;17.50;99.90
14473;DHT22;7322;50.872;4.386;2024-01-30T14:27:49;17.40;99.90
14473;DHT22;7322;50.872;4.386;2024-01-30T14:30:18;17.50;99.90
14473;DHT22;7322;50.872;4.386;2024-01-30T14:32:45;17.40;99.90
14473;DHT22;7322;50.872;4.386;2024-01-30T14:35:13;17.50;99.90
14473;DHT22;7322;50.872;4.386;2024-01-30T14:37:40;17.50;99.90
14473;DHT22;7322;50.872;4.386;2024-01-30T14:40:08;17.50;99.90
14473;DHT22;7322;50.872;4.386;2024-01-30T14:42:35;17.50;99.90
14473;DHT22;7322;50.872;4.386;2024-01-30T14:45:03;17.50;99.90
14473;DHT22;7322;50.872;4.386;2024-01-30T14:47:33;17.50;99.90
14473;DHT22;7322;50.872;4.386;2024-01-30T14:50:00;17.50;99.90
14473;DHT22;7322;50.872;4.386;2024-01-30T14:52:28;17.50;99.90
14473;DHT22;7322;50.872;4.386;2024-01-30T14:54:57;17.50;99.90
14473;DHT22;7322;50.872;4.386;2024-01-30T14:57:42;17.50;99.90
14473;DHT22;7322;50.872;4.386;2024-01-30T15:00:27;17.40;99.90
14473;DHT22;7322;50.872;4.386;2024-01-30T15:03:00;17.40;99.90
14473;DHT22;7322;50.872;4.386;2024-01-30T15:05:29;17.40;99.90
14473;DHT22;7322;50.872;4.386;2024-01-30T15:08:05;17.40;99.90
14473;DHT22;7322;50.872;4.386;2024-01-30T15:10:34;17.40;99.90
14473;DHT22;7322;50.872;4.386;2024-01-30T15:13:08;17.40;99.90
14473;DHT22;7322;50.872;4.386;2024-01-30T15:15:36;17.40;99.90
14473;DHT22;7322;50.872;4.386;2024-01-30T15:18:08;17.40;99.90
14473;DHT22;7322;50.872;4.386;2024-01-30T15:20:47;17.50;99.90
14473;DHT22;7322;50.872;4.386;2024-01-30T15:26:18;17.50;99.90
14473;DHT22;7322;50.872;4.386;2024-01-30T15:31:53;17.40;99.90
14473;DHT22;7322;50.872;4.386;2024-01-30T15:34:22;17.40;99.90
14473;DHT22;7322;50.872;4.386;2024-01-30T15:36:51;17.40;99.90
14473;DHT22;7322;50.872;4.386;2024-01-30T15:39:23;17.40;99.90
14473;DHT22;7322;50.872;4.386;2024-01-30T15:41:52;17.50;99.90
14473;DHT22;7322;50.872;4.386;2024-01-30T15:44:20;17.40;99.90
14473;DHT22;7322;50.872;4.386;2024-01-30T15:46:47;17.40;99.90
14473;DHT22;7322;50.872;4.386;2024-01-30T15:49:15;17.40;99.90
14473;DHT22;7322;50.872;4.386;2024-01-30T15:51:43;17.40;99.90
14473;DHT22;7322;50.872;4.386;2024-01-30T15:54:22;17.40;99.90
14473;DHT22;7322;50.872;4.386;2024-01-30T15:56:57;17.40;99.90
14473;DHT22;7322;50.872;4.386;2024-01-30T15:59:24;17.50;99.90
14473;DHT22;7322;50.872;4.386;2024-01-30T16:01:52;17.40;99.90
14473;DHT22;7322;50.872;4.386;2024-01-30T16:04:19;17.40;99.90
14473;DHT22;7322;50.872;4.386;2024-01-30T16:06:48;17.40;99.90
14473;DHT22;7322;50.872;4.386;2024-01-30T16:09:17;17.40;99.90